Data for 10/11/2017

Time Sea-Level Adjusted Pressure Absolute Pressure Temperature Relative Humidity Dew Point   
(mb) (inHg) (mb) (inHg) (C) (F) (%) (C) (F)
00:05 1014 29.94 844 24.92 5.3 41.6 31 -10.4 13.3
00:10 1014 29.94 843 24.89 5.3 41.5 32 -10.2 13.7
00:15 1014 29.94 843 24.89 5.3 41.5 31 -10.4 13.2
00:20 1014 29.94 843 24.89 5.3 41.5 31 -10.4 13.4
00:25 1014 29.94 843 24.89 5.3 41.6 31 -10.7 12.8
00:30 1014 29.94 843 24.89 5.5 41.9 30 -10.8 12.6
00:35 1014 29.94 843 24.89 5.7 42.3 29 -10.9 12.3
00:40 1014 29.94 843 24.89 5.8 42.4 29 -10.9 12.4
00:45 1014 29.94 843 24.89 6.2 43.1 28 -10.8 12.5
00:50 1014 29.94 843 24.89 6.1 43 30 -10.4 13.3
00:55 1014 29.94 843 24.89 6 42.8 30 -10.3 13.4
01:00 1014 29.94 843 24.89 5.9 42.6 30 -10.4 13.3
01:05 1014 29.94 843 24.89 6 42.7 31 -10 14
01:10 1014 29.94 843 24.89 5.8 42.5 31 -10.1 13.9
01:15 1014 29.94 843 24.89 5.9 42.6 31 -10.1 13.9
01:20 1014 29.94 843 24.89 5.8 42.4 32 -9.6 14.6
01:25 1014 29.94 843 24.89 5.4 41.8 33 -9.7 14.5
01:30 1014 29.94 843 24.89 5.3 41.5 33 -9.7 14.6
01:35 1014 29.94 843 24.89 5.3 41.5 33 -9.7 14.5
01:40 1014 29.94 843 24.89 5.3 41.6 33 -9.8 14.4
01:45 1014 29.94 843 24.89 5.6 42.1 32 -9.8 14.3
01:50 1014 29.94 843 24.89 5.4 41.7 34 -9.3 15.2
01:55 1014 29.94 843 24.89 5 41 35 -9.1 15.6
02:00 1014 29.94 843 24.89 4.7 40.4 36 -9.3 15.3
02:05 1014 29.94 843 24.89 4.7 40.4 35 -9.4 15
02:10 1014 29.94 843 24.89 5 41 35 -9.4 15.1
02:15 1014 29.94 843 24.89 5.2 41.4 34 -9.4 15
02:20 1014 29.94 843 24.89 5.5 41.9 34 -9.3 15.2
02:25 1014 29.94 843 24.89 5.3 41.6 34 -9.2 15.5
02:30 1014 29.94 843 24.89 5.1 41.2 35 -9 15.7
02:35 1014 29.94 843 24.89 4.9 40.9 36 -8.9 16
02:40 1014 29.94 843 24.89 4.9 40.8 36 -9 15.8
02:45 1014 29.94 843 24.89 5 40.9 36 -9 15.7
02:50 1014 29.94 843 24.89 5.1 41.1 37 -8.5 16.6
02:55 1014 29.94 843 24.89 4.5 40.1 39 -8.3 17.1
03:00 1014 29.94 843 24.89 4.2 39.6 38 -8.9 15.9
03:05 1014 29.94 843 24.89 4.5 40.1 38 -8.5 16.6
03:10 1014 29.94 843 24.89 4.4 39.9 39 -8.5 16.8
03:15 1014 29.94 843 24.89 4.1 39.4 39 -8.6 16.6
03:20 1014 29.94 843 24.89 4.3 39.8 38 -8.7 16.3
03:25 1013 29.91 843 24.89 4.5 40.2 37 -8.9 16.1
03:30 1013 29.91 843 24.89 4.8 40.6 37 -8.8 16.2
03:35 1013 29.91 843 24.89 4.7 40.5 34 -9.7 14.5
03:40 1013 29.91 843 24.89 5.1 41.1 34 -9.4 15.1
03:45 1013 29.91 843 24.89 4.9 40.9 37 -8.5 16.6
03:50 1013 29.91 843 24.89 4.6 40.2 37 -8.8 16.1
03:55 1013 29.91 843 24.89 4.4 40 38 -8.5 16.7
04:00 1013 29.91 843 24.89 4.3 39.7 38 -8.9 16
04:05 1013 29.91 842 24.86 4.6 40.3 36 -9.2 15.5
04:10 1013 29.91 842 24.86 5.1 41.1 36 -9 15.8
04:15 1013 29.91 842 24.86 5.1 41.1 36 -8.9 15.9
04:20 1013 29.91 842 24.86 4.9 40.9 36 -8.8 16.2
04:25 1013 29.91 842 24.86 5 41.1 35 -9.2 15.5
04:30 1013 29.91 842 24.86 5.1 41.2 35 -9.1 15.6
04:35 1013 29.91 842 24.86 5 41.1 36 -9 15.8
04:40 1013 29.91 842 24.86 5.3 41.5 34 -9.3 15.3
04:45 1013 29.91 842 24.86 5.2 41.4 34 -9.3 15.2
04:50 1013 29.91 842 24.86 5.4 41.8 33 -9.4 15
04:55 1013 29.91 842 24.86 5.5 41.9 34 -9.3 15.2
05:00 1013 29.91 842 24.86 5.3 41.6 34 -9.2 15.4
05:05 1013 29.91 842 24.86 5 41 36 -8.9 16
05:10 1013 29.91 842 24.86 4.8 40.6 36 -8.9 15.9
05:15 1013 29.91 842 24.86 4.8 40.6 35 -9.4 15.1
05:20 1013 29.91 842 24.86 4.9 40.8 36 -9 15.8
05:25 1013 29.91 842 24.86 4.8 40.6 35 -9.3 15.3
05:30 1013 29.91 842 24.86 4.8 40.6 36 -9 15.7
05:35 1013 29.91 842 24.86 4.8 40.7 34 -9.7 14.6
05:40 1013 29.91 842 24.86 5.1 41.1 35 -9.1 15.7
05:45 1013 29.91 842 24.86 5.1 41.1 35 -9.3 15.2
05:50 1013 29.91 842 24.86 5 40.9 34 -9.5 14.9
05:55 1013 29.91 842 24.86 5 41 34 -9.6 14.8
06:00 1013 29.91 842 24.86 4.9 40.8 36 -9 15.8
06:05 1013 29.91 842 24.86 4.6 40.2 37 -8.8 16.1
06:10 1013 29.91 842 24.86 4.4 39.8 39 -8.5 16.6
06:15 1013 29.91 842 24.86 4.4 39.9 36 -9.3 15.3
06:20 1013 29.91 842 24.86 4.7 40.4 35 -9.3 15.2
06:25 1013 29.91 842 24.86 4.8 40.7 35 -9.3 15.2
06:30 1012 29.88 842 24.86 5 40.9 34 -9.7 14.6
06:35 1012 29.88 842 24.86 5 41.1 36 -8.9 16
06:40 1012 29.88 842 24.86 4.6 40.2 37 -8.8 16.2
06:45 1012 29.88 841 24.83 4.4 39.9 39 -8.5 16.7
06:50 1012 29.88 841 24.83 4.3 39.8 37 -9 15.8
06:55 1012 29.88 841 24.83 4.4 40 36 -9.5 14.9
07:00 1012 29.88 841 24.83 5 40.9 33 -10 13.9
07:05 1012 29.88 841 24.83 5.6 42 31 -10.4 13.3
07:10 1012 29.88 841 24.83 6.3 43.3 30 -10.2 13.7
07:15 1012 29.88 841 24.83 6.3 43.3 31 -9.7 14.5
07:20 1012 29.88 841 24.83 6.2 43.2 30 -10.1 13.7
07:25 1012 29.88 841 24.83 6.5 43.8 28 -10.5 13.1
07:30 1012 29.88 841 24.83 7.1 44.8 27 -10.5 13.2
07:35 1012 29.88 841 24.83 7.4 45.3 28 -9.9 14.2
07:40 1012 29.88 841 24.83 7.3 45.1 28 -10 14
07:45 1012 29.88 841 24.83 7.4 45.2 29 -9.7 14.6
07:50 1012 29.88 841 24.83 7.4 45.2 28 -10 14
07:55 1012 29.88 841 24.83 7.7 45.9 28 -9.9 14.3
08:00 1012 29.88 841 24.83 7.9 46.1 28 -9.6 14.7
08:05 1012 29.88 841 24.83 8.1 46.6 27 -9.7 14.6
08:10 1012 29.88 841 24.83 8.4 47 27 -9.7 14.6
08:15 1012 29.88 841 24.83 8.6 47.5 27 -9.2 15.4
08:20 1012 29.88 841 24.83 8.9 48 26 -9.6 14.8
08:25 1012 29.88 841 24.83 9.3 48.7 26 -9.2 15.5
08:30 1012 29.88 841 24.83 9.6 49.3 25 -9.5 14.9
08:35 1012 29.88 841 24.83 10 50 25 -9 15.9
08:40 1012 29.88 841 24.83 10.5 50.8 24 -9.2 15.4
08:45 1012 29.88 841 24.83 10.9 51.5 24 -8.9 15.9
08:50 1012 29.88 841 24.83 11.3 52.4 22 -9.5 14.8
08:55 1012 29.88 841 24.83 11.8 53.2 22 -9.2 15.4
09:00 1012 29.88 841 24.83 12.4 54.3 20 -9.9 14.1
09:05 1012 29.88 841 24.83 12.8 55.1 20 -9.3 15.2
09:10 1012 29.88 841 24.83 13.5 56.4 18 -10 14
09:15 1012 29.88 841 24.83 14 57.2 18 -10.2 13.7
09:20 1012 29.88 841 24.83 14.2 57.6 18 -9.8 14.4
09:25 1012 29.88 841 24.83 15 58.9 15 -11.5 11.3
09:30 1012 29.88 841 24.83 15 59 15 -11.2 11.8
09:35 1011 29.85 841 24.83 15 59 15 -11.4 11.5
09:40 1011 29.85 841 24.83 15.6 60.1 15 -11 12.3
09:45 1011 29.85 841 24.83 15.3 59.5 17 -9.8 14.4
09:50 1011 29.85 841 24.83 15.5 59.9 18 -8.5 16.8
09:55 1011 29.85 840 24.81 15.7 60.3 15 -11.1 12.1
10:00 1011 29.85 840 24.81 15.6 60.1 15 -11.3 11.6
10:05 1011 29.85 840 24.81 15.7 60.2 14 -11.4 11.5
10:10 1011 29.85 840 24.81 15.9 60.5 14 -11.2 11.8
10:15 1011 29.85 840 24.81 15.9 60.7 15 -10.8 12.6
10:20 1011 29.85 840 24.81 15.8 60.5 15 -10.7 12.8
10:25 1011 29.85 840 24.81 16 60.7 14 -11.2 11.9
10:30 1011 29.85 840 24.81 16 60.8 14 -11.2 11.9
10:35 1011 29.85 840 24.81 16 60.8 14 -11.1 12.1
10:40 1011 29.85 840 24.81 16.1 60.9 15 -10.7 12.8
10:45 1011 29.85 840 24.81 16.1 61 14 -10.9 12.3
10:50 1011 29.85 840 24.81 16.3 61.3 14 -10.9 12.5
10:55 1011 29.85 840 24.81 16.5 61.7 15 -10.6 12.9
11:00 1011 29.85 840 24.81 16.6 61.8 15 -10.5 13
11:05 1011 29.85 840 24.81 16.5 61.8 15 -10.5 13
11:10 1011 29.85 840 24.81 16.2 61.1 22 -5.4 22.3
11:15 1011 29.85 840 24.81 16.1 61 23 -4.7 23.6
11:20 1011 29.85 840 24.81 16.3 61.3 23 -4.7 23.6
11:25 1011 29.85 840 24.81 15.7 60.3 24 -4.5 23.9
11:30 1011 29.85 840 24.81 15.3 59.5 23 -5.5 22.1
11:35 1011 29.85 840 24.81 15 59 24 -5.6 22
11:40 1011 29.85 840 24.81 14.3 57.7 25 -5.3 22.5
11:45 1011 29.85 840 24.81 14.9 58.8 23 -5.8 21.5
11:50 1011 29.85 840 24.81 14.7 58.4 23 -6.3 20.7
11:55 1011 29.85 840 24.81 15.1 59.2 23 -5.7 21.7
12:00 1011 29.85 840 24.81 15 59 22 -6.7 20
12:05 1010 29.83 840 24.81 15 59 21 -7.2 19.1
12:10 1011 29.85 840 24.81 16.2 61.1 20 -6.9 19.6
12:15 1010 29.83 840 24.81 16.3 61.3 18 -8 17.6
12:20 1010 29.83 840 24.81 17.1 62.8 17 -7.9 17.8
12:25 1010 29.83 839 24.78 17.4 63.3 15 -9.8 14.4
12:30 1010 29.83 839 24.78 18.1 64.6 15 -9.2 15.4
12:35 1010 29.83 839 24.78 17.6 63.7 15 -9.4 15.2
12:40 1010 29.83 839 24.78 17.9 64.2 14 -10 13.9
12:45 1010 29.83 839 24.78 17.9 64.3 14 -9.6 14.7
12:50 1010 29.83 839 24.78 17.5 63.4 14 -10 14
12:55 1010 29.83 839 24.78 17.4 63.3 15 -9.6 14.8
13:00 1010 29.83 839 24.78 17.8 64 15 -9.5 14.9
13:05 1010 29.83 839 24.78 17.3 63.2 14 -10 14.1
13:10 1010 29.83 839 24.78 17.5 63.5 14 -9.9 14.2
13:15 1010 29.83 839 24.78 17.2 63 15 -9.9 14.2
13:20 1010 29.83 839 24.78 17.2 63 15 -9.4 15
13:25 1010 29.83 839 24.78 17.3 63.1 16 -9.1 15.6
13:30 1010 29.83 839 24.78 17.4 63.3 15 -9.4 15.1
13:35 1010 29.83 839 24.78 17.1 62.7 15 -9.4 15
13:40 1010 29.83 839 24.78 17.2 62.9 15 -9.5 15
13:45 1010 29.83 839 24.78 16.9 62.4 15 -9.8 14.3
13:50 1010 29.83 839 24.78 17 62.5 15 -9.7 14.5
13:55 1010 29.83 839 24.78 17 62.6 15 -9.8 14.4
14:00 1010 29.83 839 24.78 17 62.6 15 -9.6 14.8
14:05 1010 29.83 839 24.78 17 62.6 15 -9.6 14.7
14:10 1010 29.83 839 24.78 17 62.6 14 -10.3 13.5
14:15 1010 29.83 839 24.78 16.7 62.1 15 -9.8 14.3
14:20 1010 29.83 839 24.78 16.8 62.2 15 -10.2 13.7
14:25 1010 29.83 839 24.78 16.6 61.9 15 -10.4 13.2
14:30 1010 29.83 839 24.78 16.5 61.8 15 -10.5 13.2
14:35 1010 29.83 839 24.78 16.6 61.8 15 -10.3 13.5
14:40 1010 29.83 839 24.78 16.6 61.9 14 -10.6 13
14:45 1010 29.83 839 24.78 16.7 62 15 -10.3 13.5
14:50 1010 29.83 839 24.78 16.5 61.7 15 -10.2 13.7
14:55 1010 29.83 839 24.78 16.5 61.7 14 -10.7 12.7
15:00 1010 29.83 839 24.78 16.6 61.9 14 -10.6 12.9
15:05 1010 29.83 839 24.78 16.6 61.8 15 -9.9 14.1
15:10 1010 29.83 839 24.78 16.7 62 14 -10.7 12.7
15:15 1010 29.83 839 24.78 16.7 62 15 -10.1 13.7
15:20 1010 29.83 839 24.78 16.7 62.1 15 -10 13.9
15:25 1010 29.83 839 24.78 16.7 62.1 15 -9.9 14.2
15:30 1010 29.83 839 24.78 16.8 62.2 14 -10.7 12.7
15:35 1010 29.83 839 24.78 16.7 62.1 15 -10.2 13.6
15:40 1010 29.83 839 24.78 16.6 61.8 15 -10.2 13.7
15:45 1010 29.83 839 24.78 16.5 61.7 14 -10.9 12.4
15:50 1010 29.83 839 24.78 16.3 61.3 14 -11.2 11.9
15:55 1010 29.83 839 24.78 16.2 61.1 14 -10.9 12.3
16:00 1010 29.83 839 24.78 16.2 61.1 14 -11.1 12.1
16:05 1010 29.83 839 24.78 15.9 60.6 14 -11.3 11.7
16:10 1010 29.83 839 24.78 15.8 60.4 15 -11.1 12.1
16:15 1010 29.83 839 24.78 15.8 60.5 14 -11.4 11.5
16:20 1010 29.83 839 24.78 15.7 60.2 15 -10.5 13
16:25 1010 29.83 839 24.78 15.2 59.4 16 -10.3 13.5
16:30 1010 29.83 839 24.78 14.6 58.3 24 -5.8 21.5
16:35 1010 29.83 840 24.81 13.2 55.7 27 -5.3 22.4
16:40 1010 29.83 840 24.81 12.3 54.1 30 -4.6 23.7
16:45 1011 29.85 840 24.81 11.5 52.6 33 -4.2 24.4
16:50 1011 29.85 840 24.81 11 51.8 34 -4.3 24.3
16:55 1011 29.85 840 24.81 10.7 51.3 35 -4.2 24.4
17:00 1011 29.85 840 24.81 10.4 50.8 36 -3.9 25
17:05 1011 29.85 841 24.83 10.1 50.1 38 -3.7 25.3
17:10 1012 29.88 841 24.83 9.9 49.9 39 -3.5 25.7
17:15 1012 29.88 841 24.83 9.8 49.7 39 -3.5 25.8
17:20 1012 29.88 842 24.86 9.5 49.2 40 -3.2 26.2
17:25 1013 29.91 842 24.86 9.2 48.6 42 -3.1 26.4
17:30 1013 29.91 842 24.86 8.8 47.9 43 -3 26.7
17:35 1013 29.91 842 24.86 8.6 47.4 44 -3 26.6
17:40 1013 29.91 842 24.86 8.5 47.2 45 -2.9 26.9
17:45 1013 29.91 843 24.89 8.3 46.9 46 -2.7 27.1
17:50 1014 29.94 843 24.89 8 46.4 47 -2.7 27.1
17:55 1014 29.94 843 24.89 7.9 46.2 47 -2.6 27.4
18:00 1014 29.94 843 24.89 7.7 45.8 49 -2.4 27.6
18:05 1014 29.94 843 24.89 7.4 45.3 50 -2.3 27.8
18:10 1014 29.94 843 24.89 7.3 45.1 52 -1.9 28.6
18:15 1014 29.94 843 24.89 7.1 44.8 56 -1.1 30.1
18:20 1014 29.94 844 24.92 6.9 44.4 60 -0.3 31.4
18:25 1015 29.97 844 24.92 6.6 43.8 64 0.2 32.4
18:30 1015 29.97 844 24.92 6.2 43.2 68 0.8 33.4
18:35 1015 29.97 844 24.92 6 42.7 69 0.7 33.3
18:40 1015 29.97 844 24.92 5.5 41.9 73 1 33.8
18:45 1015 29.97 844 24.92 5.3 41.5 72 0.6 33
18:50 1015 29.97 844 24.92 5 41 74 0.8 33.5
18:55 1015 29.97 845 24.95 4.6 40.3 76 0.7 33.3
19:00 1016 30 845 24.95 4.3 39.7 79 0.9 33.6
19:05 1016 30 845 24.95 3.9 39 79 0.6 33.1
19:10 1016 30 845 24.95 3.4 38.1 82 0.7 33.2
19:15 1016 30 845 24.95 2.8 37.1 84 0.4 32.7
19:20 1016 30 845 24.95 2.6 36.6 85 0.4 32.7
19:25 1016 30 845 24.95 2.6 36.6 86 0.4 32.8
19:30 1016 30 845 24.95 2.5 36.6 87 0.6 33.1
19:35 1016 30 845 24.95 2.7 36.8 87 0.7 33.2
19:40 1016 30 845 24.95 2.7 36.8 87 0.7 33.3
19:45 1016 30 845 24.95 2.7 36.9 87 0.8 33.4
19:50 1016 30 845 24.95 2.8 37.1 87 0.8 33.4
19:55 1016 30 845 24.95 2.9 37.3 86 0.8 33.4
20:00 1016 30 845 24.95 2.6 36.7 87 0.6 33.1
20:05 1016 30 845 24.95 2.4 36.3 86 0.3 32.6
20:10 1016 30 845 24.95 2.4 36.3 87 0.4 32.8
20:15 1016 30 845 24.95 2.5 36.6 87 0.5 32.9
20:20 1016 30 845 24.95 2.8 37.1 85 0.5 33
20:25 1016 30 845 24.95 2.9 37.3 85 0.7 33.2
20:30 1016 30 845 24.95 2.9 37.3 85 0.6 33.1
20:35 1016 30 845 24.95 2.8 37.1 85 0.5 32.9
20:40 1016 30 845 24.95 2.7 36.9 85 0.4 32.7
20:45 1016 30 845 24.95 2.6 36.7 85 0.4 32.6
20:50 1016 30 845 24.95 2.5 36.6 85 0.3 32.5
20:55 1016 30 845 24.95 2.4 36.4 85 0.2 32.4
21:00 1016 30 845 24.95 2.4 36.3 86 0.3 32.5
21:05 1016 30 845 24.95 2.5 36.4 86 0.4 32.7
21:10 1016 30 845 24.95 2.5 36.5 87 0.5 32.9
21:15 1016 30 845 24.95 2.5 36.5 85 0.3 32.5
21:20 1016 30 845 24.95 2.3 36.2 86 0.2 32.4
21:25 1016 30 845 24.95 1.8 35.2 88 -0.1 31.8
21:30 1016 30 845 24.95 1.3 34.3 89 -0.3 31.4
21:35 1016 30 846 24.98 1 33.8 90 -0.5 31.2
21:40 1016 30 846 24.98 0.9 33.7 90 -0.5 31.1
21:45 1016 30 845 24.95 0.7 33.3 91 -0.6 31
21:50 1016 30 845 24.95 0.7 33.2 91 -0.6 30.8
21:55 1016 30 845 24.95 0.7 33.2 91 -0.6 30.9
22:00 1016 30 845 24.95 0.7 33.2 91 -0.6 30.9
22:05 1016 30 845 24.95 0.6 33 92 -0.6 30.8
22:10 1016 30 845 24.95 0.6 33.2 91 -0.6 30.9
22:15 1016 30 845 24.95 0.6 33.2 92 -0.6 31
22:20 1016 30 845 24.95 0.7 33.3 92 -0.5 31.1
22:25 1016 30 845 24.95 0.8 33.4 91 -0.5 31.2
22:30 1016 30 845 24.95 0.7 33.3 91 -0.6 31
22:35 1016 30 845 24.95 0.6 33.1 92 -0.6 30.9
22:40 1016 30 845 24.95 0.7 33.2 92 -0.5 31
22:45 1016 30 845 24.95 0.8 33.4 91 -0.5 31.1
22:50 1016 30 845 24.95 0.7 33.3 91 -0.5 31
22:55 1016 30 845 24.95 0.6 33.1 92 -0.6 31
23:00 1016 30 845 24.95 0.7 33.3 92 -0.5 31.2
23:05 1016 30 845 24.95 0.8 33.4 91 -0.5 31.1
23:10 1016 30 845 24.95 0.7 33.3 92 -0.5 31.1
23:15 1016 30 845 24.95 0.7 33.3 92 -0.5 31.1
23:20 1016 30 845 24.95 0.7 33.3 91 -0.5 31
23:25 1016 30 846 24.98 0.7 33.3 92 -0.5 31.2
23:30 1016 30 845 24.95 0.8 33.4 91 -0.5 31.2
23:35 1016 30 845 24.95 0.8 33.4 91 -0.5 31.2
23:40 1016 30 845 24.95 0.8 33.4 91 -0.5 31.1
23:45 1016 30 845 24.95 0.7 33.2 91 -0.6 30.9
23:50 1016 30 845 24.95 0.6 33 92 -0.7 30.8
23:55 1016 30 845 24.95 0.5 32.9 92 -0.7 30.7
24:00 1016 30 845 24.95 0.3 32.6 92 -0.8 30.6